createdAt,value
2018-06-02T00:08:00.138Z,22.9
2018-06-02T00:18:00.773Z,22.9
2018-06-02T00:27:58.656Z,22.9
2018-06-02T00:37:57.812Z,22.9
2018-06-02T00:47:56.948Z,22.9
2018-06-02T00:57:56.333Z,22.9
2018-06-02T01:07:55.442Z,22.8
2018-06-02T01:17:54.681Z,22.8
2018-06-02T01:27:54.498Z,22.8
2018-06-02T01:37:53.481Z,22.8
2018-06-02T01:47:52.292Z,22.7
2018-06-02T01:57:51.264Z,22.6
2018-06-02T02:07:50.775Z,22.6
2018-06-02T02:17:49.743Z,22.6
2018-06-02T02:27:48.914Z,22.5
2018-06-02T02:37:48.481Z,22.4
2018-06-02T02:47:47.321Z,22.4
2018-06-02T02:57:46.612Z,22.3
2018-06-02T03:07:46.688Z,22.3
2018-06-02T03:17:45.670Z,22.3
2018-06-02T03:27:44.204Z,22.2
2018-06-02T03:37:44.041Z,22.2
2018-06-02T03:47:43.045Z,22.2
2018-06-02T03:57:42.223Z,22.3
2018-06-02T04:07:41.482Z,22.3
2018-06-02T04:17:40.718Z,22.4
2018-06-02T04:27:39.883Z,22.6
2018-06-02T04:37:39.419Z,22.8
2018-06-02T04:47:38.577Z,22.9
2018-06-02T04:57:37.767Z,23.1
2018-06-02T05:07:36.422Z,23.1
2018-06-02T05:17:36.920Z,23.3
2018-06-02T05:27:35.595Z,23.3
2018-06-02T05:37:34.443Z,23.5
2018-06-02T05:47:33.469Z,23.7
2018-06-02T05:57:32.703Z,23.8
2018-06-02T06:07:32.139Z,24
2018-06-02T06:17:30.987Z,24.6
2018-06-02T06:27:31.428Z,25.3
2018-06-02T06:37:30.343Z,24.9
2018-06-02T06:47:28.683Z,25.5
2018-06-02T06:57:28.518Z,25.1
2018-06-02T07:07:27.578Z,25.1
2018-06-02T07:17:26.545Z,25.3
2018-06-02T07:27:25.912Z,25.2
2018-06-02T07:37:24.870Z,25.9
2018-06-02T07:47:24.044Z,26.1
2018-06-02T07:57:23.593Z,25.6
2018-06-02T08:07:22.741Z,26.4
2018-06-02T08:17:22.046Z,26.8
2018-06-02T08:27:20.974Z,27.1
2018-06-02T08:37:21.465Z,26.7
2018-06-02T08:47:20.840Z,27.2
2018-06-02T08:57:18.977Z,27.8
2018-06-02T09:07:18.109Z,27.6
2018-06-02T09:17:17.274Z,27.3
2018-06-02T09:27:16.593Z,27.1
2018-06-02T09:37:16.413Z,26.8
2018-06-02T09:47:15.394Z,26.9
2018-06-02T09:57:14.456Z,26.9
2018-06-02T10:07:13.964Z,26.9
2018-06-02T10:17:12.802Z,26.8
2018-06-02T10:27:12.594Z,26.8
2018-06-02T10:37:12.096Z,26.8
2018-06-02T10:47:11.008Z,26.8
2018-06-02T10:57:10.219Z,26.8
2018-06-02T11:07:09.150Z,26.8
2018-06-02T11:17:08.657Z,26.9
2018-06-02T11:27:07.687Z,26.9
2018-06-02T11:37:06.517Z,26.9
2018-06-02T11:47:05.426Z,26.9
2018-06-02T11:57:05.048Z,27
2018-06-02T12:07:04.880Z,26.9
2018-06-02T12:17:03.808Z,26.8
2018-06-02T12:27:02.970Z,26.9
2018-06-02T12:37:02.003Z,26.8
2018-06-02T12:47:01.172Z,26.8
2018-06-02T12:57:00.090Z,26.8
2018-06-02T13:07:00.107Z,26.8
2018-06-02T13:16:58.887Z,26.8
2018-06-02T13:26:57.962Z,26.8
2018-06-02T13:36:57.052Z,26.8
2018-06-02T13:46:56.253Z,26.8
2018-06-02T13:56:55.399Z,26.5
2018-06-02T14:06:54.958Z,26.4
2018-06-02T14:16:54.303Z,26.4
2018-06-02T14:26:53.566Z,26.4
2018-06-02T14:36:53.025Z,26.3
2018-06-02T14:46:51.536Z,26.3
2018-06-02T14:56:51.421Z,26.1
2018-06-02T15:06:50.735Z,26
2018-06-02T15:16:49.335Z,25.9
2018-06-02T15:26:48.739Z,26
2018-06-02T15:36:47.776Z,25.9
2018-06-02T15:46:47.557Z,25.9
2018-06-02T15:56:47.134Z,24.6
2018-06-02T16:06:46.869Z,24.6
2018-06-02T16:16:45.158Z,24.4
2018-06-02T16:26:44.460Z,24.4
2018-06-02T16:36:43.375Z,24.3
2018-06-02T16:46:42.263Z,24.1
2018-06-02T16:56:41.492Z,24
2018-06-02T17:06:41.583Z,23.9
2018-06-02T17:16:39.985Z,23.9
2018-06-02T17:26:39.831Z,24
2018-06-02T17:36:38.487Z,24.1
2018-06-02T17:46:38.284Z,24.4
2018-06-02T17:56:36.916Z,24.4
2018-06-02T18:06:36.906Z,24.5
2018-06-02T18:16:35.311Z,24.6
2018-06-02T18:26:35.149Z,24.7
2018-06-02T18:36:34.136Z,24.7
2018-06-02T18:46:33.948Z,24.6
2018-06-02T18:56:32.334Z,24.5
2018-06-02T19:06:31.958Z,24.5
2018-06-02T19:16:31.073Z,24.4
2018-06-02T19:26:30.553Z,24.4
2018-06-02T19:36:30.343Z,24.3
2018-06-02T19:46:28.659Z,24.2
2018-06-02T19:56:28.478Z,24.1
2018-06-02T20:06:26.860Z,24
2018-06-02T20:16:26.508Z,23.9
2018-06-02T20:26:25.849Z,23.9
2018-06-02T20:36:24.998Z,23.8
2018-06-02T20:46:23.772Z,23.8
2018-06-02T20:56:23.354Z,23.7
2018-06-02T21:06:22.862Z,23.6
2018-06-02T21:16:21.970Z,23.6
2018-06-02T21:26:20.699Z,23.5
2018-06-02T21:36:20.303Z,23.4
2018-06-02T21:46:19.115Z,23.3
2018-06-02T21:56:18.443Z,23.3
2018-06-02T22:06:18.013Z,23.2
2018-06-02T22:16:17.201Z,23.1
2018-06-02T22:26:16.408Z,23
2018-06-02T22:36:16.018Z,23
2018-06-02T22:46:15.128Z,22.9
2018-06-02T22:56:14.177Z,22.8
2018-06-02T23:06:13.027Z,22.8
2018-06-02T23:16:12.564Z,22.7
2018-06-02T23:26:11.770Z,22.6
2018-06-02T23:36:10.717Z,22.6
2018-06-02T23:46:10.462Z,22.5
2018-06-02T23:56:09.714Z,22.5
